ENSB/LYR METAR and TAF weather

Enter ICAO airport designator
Station Type Date Time Source
ENSB METAR 2021/07/27 19:50 UTC NOAA

ENSB 271950Z 26014KT 9999 FEW006 SCT013 BKN021 07/05 Q1017 RMK WIND 1400FT 29006KT


Station Type Date Time Source
ENSB Decoded METAR 2021/07/27 19:50 UTC NOAA

Svalbard Lufthavn, Norway (ENSB) 78-15N 015-28E 29M
Jul 27, 2021 - 03:50 PM EDT / 2021.07.27 1950 UTC
Wind: from the W (260 degrees) at 16 MPH (14 KT):0
Visibility: greater than 7 mile(s):0
Sky conditions: mostly cloudy
Temperature: 44 F (7 C)
Dew Point: 41 F (5 C)
Relative Humidity: 87%
Pressure (altimeter): 30.03 in. Hg (1017 hPa)
ob: ENSB 271950Z 26014KT 9999 FEW006 SCT013 BKN021 07/05 Q1017 RMK WIND 1400FT 29006KT
cycle: 20

Station Type Date Time Source
ENSB TAF 2021/07/27 18:57 UTC NOAA

TAF ENSB 271700Z 2718/2818 26005KT 9999 FEW010 BKN025
TEMPO 2718/2818 BKN009

Example: see airport list